sensor_id;sensor_type;location;lat;lon;timestamp;P1;durP1;ratioP1;P2;durP2;ratioP2
14603;SDS011;7388;51.078;13.740;2023-06-26T00:00:16;10.97;;;9.97;;
14603;SDS011;7388;51.078;13.740;2023-06-26T00:02:42;9.47;;;7.27;;
14603;SDS011;7388;51.078;13.740;2023-06-26T00:05:07;10.93;;;9.30;;
14603;SDS011;7388;51.078;13.740;2023-06-26T00:07:33;11.27;;;8.53;;
14603;SDS011;7388;51.078;13.740;2023-06-26T00:10:00;8.97;;;8.17;;
14603;SDS011;7388;51.078;13.740;2023-06-26T00:12:28;8.90;;;8.10;;
14603;SDS011;7388;51.078;13.740;2023-06-26T00:14:54;8.80;;;8.00;;
14603;SDS011;7388;51.078;13.740;2023-06-26T00:17:20;9.60;;;8.70;;
14603;SDS011;7388;51.078;13.740;2023-06-26T00:19:46;9.63;;;7.70;;
14603;SDS011;7388;51.078;13.740;2023-06-26T00:22:12;9.20;;;8.23;;
14603;SDS011;7388;51.078;13.740;2023-06-26T00:24:38;10.30;;;7.80;;
14603;SDS011;7388;51.078;13.740;2023-06-26T00:27:05;9.50;;;8.70;;
14603;SDS011;7388;51.078;13.740;2023-06-26T00:29:31;9.83;;;8.90;;
14603;SDS011;7388;51.078;13.740;2023-06-26T00:31:57;10.43;;;9.47;;
14603;SDS011;7388;51.078;13.740;2023-06-26T00:34:23;10.20;;;8.43;;
14603;SDS011;7388;51.078;13.740;2023-06-26T00:36:49;9.13;;;8.23;;
14603;SDS011;7388;51.078;13.740;2023-06-26T00:39:14;9.10;;;8.30;;
14603;SDS011;7388;51.078;13.740;2023-06-26T00:41:40;8.87;;;8.07;;
14603;SDS011;7388;51.078;13.740;2023-06-26T00:44:06;13.20;;;9.27;;
14603;SDS011;7388;51.078;13.740;2023-06-26T00:46:33;11.30;;;8.87;;
14603;SDS011;7388;51.078;13.740;2023-06-26T00:49:00;9.63;;;8.67;;
14603;SDS011;7388;51.078;13.740;2023-06-26T00:51:27;8.23;;;7.27;;
14603;SDS011;7388;51.078;13.740;2023-06-26T00:53:55;9.60;;;8.60;;
14603;SDS011;7388;51.078;13.740;2023-06-26T00:56:22;9.60;;;8.70;;
14603;SDS011;7388;51.078;13.740;2023-06-26T00:58:48;9.63;;;8.57;;
14603;SDS011;7388;51.078;13.740;2023-06-26T01:01:14;10.17;;;9.17;;
14603;SDS011;7388;51.078;13.740;2023-06-26T01:03:45;7.93;;;7.13;;
14603;SDS011;7388;51.078;13.740;2023-06-26T01:06:17;8.90;;;8.00;;
14603;SDS011;7388;51.078;13.740;2023-06-26T01:08:44;9.30;;;8.27;;
14603;SDS011;7388;51.078;13.740;2023-06-26T01:11:11;8.80;;;7.90;;
14603;SDS011;7388;51.078;13.740;2023-06-26T01:13:38;10.20;;;8.53;;
14603;SDS011;7388;51.078;13.740;2023-06-26T01:16:06;9.70;;;8.80;;
14603;SDS011;7388;51.078;13.740;2023-06-26T01:18:32;9.57;;;8.67;;
14603;SDS011;7388;51.078;13.740;2023-06-26T01:20:59;8.40;;;7.53;;
14603;SDS011;7388;51.078;13.740;2023-06-26T01:26:16;10.40;;;8.43;;
14603;SDS011;7388;51.078;13.740;2023-06-26T01:28:46;8.80;;;7.60;;
14603;SDS011;7388;51.078;13.740;2023-06-26T01:31:15;16.30;;;8.17;;
14603;SDS011;7388;51.078;13.740;2023-06-26T01:33:42;11.80;;;8.80;;
14603;SDS011;7388;51.078;13.740;2023-06-26T01:36:08;10.67;;;9.53;;
14603;SDS011;7388;51.078;13.740;2023-06-26T01:38:35;8.97;;;7.63;;
14603;SDS011;7388;51.078;13.740;2023-06-26T01:41:01;10.00;;;9.10;;
14603;SDS011;7388;51.078;13.740;2023-06-26T01:46:06;10.17;;;7.67;;
14603;SDS011;7388;51.078;13.740;2023-06-26T01:49:30;9.73;;;8.83;;
14603;SDS011;7388;51.078;13.740;2023-06-26T01:52:19;11.17;;;8.43;;
14603;SDS011;7388;51.078;13.740;2023-06-26T01:54:33;13.20;;;9.07;;
14603;SDS011;7388;51.078;13.740;2023-06-26T01:57:07;9.50;;;8.53;;
14603;SDS011;7388;51.078;13.740;2023-06-26T01:59:34;9.70;;;7.67;;
14603;SDS011;7388;51.078;13.740;2023-06-26T02:02:02;10.07;;;8.67;;
14603;SDS011;7388;51.078;13.740;2023-06-26T02:04:31;9.60;;;8.67;;
14603;SDS011;7388;51.078;13.740;2023-06-26T02:06:57;9.33;;;8.00;;
14603;SDS011;7388;51.078;13.740;2023-06-26T02:09:23;9.70;;;8.20;;
14603;SDS011;7388;51.078;13.740;2023-06-26T02:11:48;9.33;;;8.17;;
14603;SDS011;7388;51.078;13.740;2023-06-26T02:14:14;9.80;;;8.90;;
14603;SDS011;7388;51.078;13.740;2023-06-26T02:16:40;24.90;;;9.67;;
14603;SDS011;7388;51.078;13.740;2023-06-26T02:19:05;9.37;;;8.37;;
14603;SDS011;7388;51.078;13.740;2023-06-26T02:21:31;11.47;;;10.10;;
14603;SDS011;7388;51.078;13.740;2023-06-26T02:23:57;13.50;;;10.87;;
14603;SDS011;7388;51.078;13.740;2023-06-26T02:26:22;10.73;;;9.63;;
14603;SDS011;7388;51.078;13.740;2023-06-26T02:28:48;10.50;;;9.20;;
14603;SDS011;7388;51.078;13.740;2023-06-26T02:31:14;13.53;;;7.97;;
14603;SDS011;7388;51.078;13.740;2023-06-26T02:33:41;9.50;;;8.60;;
14603;SDS011;7388;51.078;13.740;2023-06-26T02:36:07;13.27;;;8.53;;
14603;SDS011;7388;51.078;13.740;2023-06-26T02:38:33;11.00;;;7.87;;
14603;SDS011;7388;51.078;13.740;2023-06-26T02:40:59;9.90;;;8.50;;
14603;SDS011;7388;51.078;13.740;2023-06-26T02:43:24;8.90;;;8.00;;
14603;SDS011;7388;51.078;13.740;2023-06-26T02:45:50;9.70;;;8.80;;
14603;SDS011;7388;51.078;13.740;2023-06-26T02:48:16;9.03;;;8.13;;
14603;SDS011;7388;51.078;13.740;2023-06-26T02:50:41;9.63;;;8.70;;
14603;SDS011;7388;51.078;13.740;2023-06-26T02:53:11;9.67;;;8.77;;
14603;SDS011;7388;51.078;13.740;2023-06-26T02:55:37;9.00;;;8.20;;
14603;SDS011;7388;51.078;13.740;2023-06-26T02:58:02;9.30;;;8.00;;
14603;SDS011;7388;51.078;13.740;2023-06-26T03:00:28;9.93;;;8.80;;
14603;SDS011;7388;51.078;13.740;2023-06-26T03:02:55;11.23;;;9.00;;
14603;SDS011;7388;51.078;13.740;2023-06-26T03:05:20;11.17;;;7.80;;
14603;SDS011;7388;51.078;13.740;2023-06-26T03:07:48;9.00;;;8.20;;
14603;SDS011;7388;51.078;13.740;2023-06-26T03:10:14;9.37;;;8.30;;
14603;SDS011;7388;51.078;13.740;2023-06-26T03:12:40;10.27;;;7.63;;
14603;SDS011;7388;51.078;13.740;2023-06-26T03:15:06;8.93;;;8.03;;
14603;SDS011;7388;51.078;13.740;2023-06-26T03:17:32;10.60;;;8.00;;
14603;SDS011;7388;51.078;13.740;2023-06-26T03:19:57;10.47;;;9.30;;
14603;SDS011;7388;51.078;13.740;2023-06-26T03:22:23;9.47;;;8.57;;
14603;SDS011;7388;51.078;13.740;2023-06-26T03:24:49;8.60;;;7.73;;
14603;SDS011;7388;51.078;13.740;2023-06-26T03:27:15;9.70;;;8.70;;
14603;SDS011;7388;51.078;13.740;2023-06-26T03:29:40;13.20;;;9.17;;
14603;SDS011;7388;51.078;13.740;2023-06-26T03:32:06;9.63;;;8.73;;
14603;SDS011;7388;51.078;13.740;2023-06-26T03:34:32;8.33;;;7.47;;
14603;SDS011;7388;51.078;13.740;2023-06-26T03:36:58;12.30;;;8.83;;
14603;SDS011;7388;51.078;13.740;2023-06-26T03:39:24;11.00;;;7.33;;
14603;SDS011;7388;51.078;13.740;2023-06-26T03:41:49;9.00;;;8.10;;
14603;SDS011;7388;51.078;13.740;2023-06-26T03:44:15;9.30;;;8.40;;
14603;SDS011;7388;51.078;13.740;2023-06-26T03:46:41;12.60;;;9.50;;
14603;SDS011;7388;51.078;13.740;2023-06-26T03:49:07;9.07;;;8.17;;
14603;SDS011;7388;51.078;13.740;2023-06-26T03:51:33;10.40;;;8.53;;
14603;SDS011;7388;51.078;13.740;2023-06-26T03:53:58;13.47;;;9.37;;
14603;SDS011;7388;51.078;13.740;2023-06-26T03:56:24;9.73;;;8.73;;
14603;SDS011;7388;51.078;13.740;2023-06-26T03:58:50;8.10;;;7.30;;
14603;SDS011;7388;51.078;13.740;2023-06-26T04:01:16;9.73;;;8.77;;
14603;SDS011;7388;51.078;13.740;2023-06-26T04:03:41;8.80;;;7.60;;
14603;SDS011;7388;51.078;13.740;2023-06-26T04:06:07;15.40;;;7.47;;
14603;SDS011;7388;51.078;13.740;2023-06-26T04:08:33;16.93;;;8.97;;
14603;SDS011;7388;51.078;13.740;2023-06-26T04:10:58;10.53;;;8.77;;
14603;SDS011;7388;51.078;13.740;2023-06-26T04:13:24;13.43;;;9.47;;
14603;SDS011;7388;51.078;13.740;2023-06-26T04:15:53;12.60;;;9.50;;
14603;SDS011;7388;51.078;13.740;2023-06-26T04:18:18;10.63;;;9.50;;
14603;SDS011;7388;51.078;13.740;2023-06-26T04:21:03;11.93;;;9.00;;
14603;SDS011;7388;51.078;13.740;2023-06-26T04:23:37;9.27;;;8.43;;
14603;SDS011;7388;51.078;13.740;2023-06-26T04:26:03;12.70;;;9.47;;
14603;SDS011;7388;51.078;13.740;2023-06-26T04:28:30;10.33;;;9.13;;
14603;SDS011;7388;51.078;13.740;2023-06-26T04:30:57;10.30;;;9.30;;
14603;SDS011;7388;51.078;13.740;2023-06-26T04:33:24;10.97;;;9.90;;
14603;SDS011;7388;51.078;13.740;2023-06-26T04:35:50;13.97;;;11.70;;
14603;SDS011;7388;51.078;13.740;2023-06-26T04:38:16;13.73;;;9.30;;
14603;SDS011;7388;51.078;13.740;2023-06-26T04:40:43;11.57;;;9.33;;
14603;SDS011;7388;51.078;13.740;2023-06-26T04:43:09;12.20;;;9.60;;
14603;SDS011;7388;51.078;13.740;2023-06-26T04:45:35;9.77;;;8.73;;
14603;SDS011;7388;51.078;13.740;2023-06-26T04:48:01;10.63;;;9.53;;
14603;SDS011;7388;51.078;13.740;2023-06-26T04:50:27;11.27;;;8.00;;
14603;SDS011;7388;51.078;13.740;2023-06-26T04:52:56;8.70;;;7.50;;
14603;SDS011;7388;51.078;13.740;2023-06-26T04:55:25;11.60;;;9.27;;
14603;SDS011;7388;51.078;13.740;2023-06-26T04:57:51;12.90;;;8.40;;
14603;SDS011;7388;51.078;13.740;2023-06-26T05:00:17;11.70;;;8.40;;
14603;SDS011;7388;51.078;13.740;2023-06-26T05:02:43;10.40;;;9.30;;
14603;SDS011;7388;51.078;13.740;2023-06-26T05:05:09;10.33;;;9.23;;
14603;SDS011;7388;51.078;13.740;2023-06-26T05:07:35;10.97;;;8.80;;
14603;SDS011;7388;51.078;13.740;2023-06-26T05:10:01;10.43;;;9.13;;
14603;SDS011;7388;51.078;13.740;2023-06-26T05:12:27;9.53;;;8.50;;
14603;SDS011;7388;51.078;13.740;2023-06-26T05:14:53;10.90;;;8.90;;
14603;SDS011;7388;51.078;13.740;2023-06-26T05:17:19;9.13;;;8.33;;
14603;SDS011;7388;51.078;13.740;2023-06-26T05:19:44;12.03;;;8.60;;
14603;SDS011;7388;51.078;13.740;2023-06-26T05:22:10;11.33;;;9.90;;
14603;SDS011;7388;51.078;13.740;2023-06-26T05:24:38;8.70;;;7.90;;
14603;SDS011;7388;51.078;13.740;2023-06-26T05:27:05;9.50;;;8.43;;
14603;SDS011;7388;51.078;13.740;2023-06-26T05:29:31;9.43;;;7.20;;
14603;SDS011;7388;51.078;13.740;2023-06-26T05:31:58;9.10;;;8.07;;
14603;SDS011;7388;51.078;13.740;2023-06-26T05:34:24;11.20;;;8.37;;
14603;SDS011;7388;51.078;13.740;2023-06-26T05:36:55;9.43;;;8.47;;
14603;SDS011;7388;51.078;13.740;2023-06-26T05:39:23;9.57;;;7.80;;
14603;SDS011;7388;51.078;13.740;2023-06-26T05:41:50;11.30;;;7.90;;
14603;SDS011;7388;51.078;13.740;2023-06-26T05:44:16;9.00;;;7.63;;
14603;SDS011;7388;51.078;13.740;2023-06-26T05:46:42;9.17;;;7.90;;
14603;SDS011;7388;51.078;13.740;2023-06-26T05:49:08;11.03;;;7.60;;
14603;SDS011;7388;51.078;13.740;2023-06-26T05:51:35;7.93;;;7.13;;
14603;SDS011;7388;51.078;13.740;2023-06-26T05:54:01;11.60;;;8.67;;
14603;SDS011;7388;51.078;13.740;2023-06-26T05:56:27;10.30;;;7.40;;
14603;SDS011;7388;51.078;13.740;2023-06-26T05:58:53;9.87;;;8.93;;
14603;SDS011;7388;51.078;13.740;2023-06-26T06:01:20;9.70;;;7.60;;
14603;SDS011;7388;51.078;13.740;2023-06-26T06:03:46;9.57;;;8.67;;
14603;SDS011;7388;51.078;13.740;2023-06-26T06:06:11;9.73;;;7.93;;
14603;SDS011;7388;51.078;13.740;2023-06-26T06:08:41;9.87;;;7.60;;
14603;SDS011;7388;51.078;13.740;2023-06-26T06:11:07;9.00;;;8.10;;
14603;SDS011;7388;51.078;13.740;2023-06-26T06:13:33;9.17;;;7.53;;
14603;SDS011;7388;51.078;13.740;2023-06-26T06:15:58;9.03;;;7.90;;
14603;SDS011;7388;51.078;13.740;2023-06-26T06:18:24;8.90;;;8.10;;
14603;SDS011;7388;51.078;13.740;2023-06-26T06:20:50;9.17;;;7.40;;
14603;SDS011;7388;51.078;13.740;2023-06-26T06:23:16;8.23;;;6.40;;
14603;SDS011;7388;51.078;13.740;2023-06-26T06:25:41;8.73;;;7.20;;
14603;SDS011;7388;51.078;13.740;2023-06-26T06:28:07;9.37;;;7.40;;
14603;SDS011;7388;51.078;13.740;2023-06-26T06:30:33;10.53;;;7.43;;
14603;SDS011;7388;51.078;13.740;2023-06-26T06:32:58;8.90;;;8.03;;
14603;SDS011;7388;51.078;13.740;2023-06-26T06:35:24;7.80;;;7.00;;
14603;SDS011;7388;51.078;13.740;2023-06-26T06:37:50;8.27;;;7.20;;
14603;SDS011;7388;51.078;13.740;2023-06-26T06:40:16;7.80;;;6.90;;
14603;SDS011;7388;51.078;13.740;2023-06-26T06:42:41;8.53;;;6.33;;
14603;SDS011;7388;51.078;13.740;2023-06-26T06:45:07;8.13;;;7.00;;
14603;SDS011;7388;51.078;13.740;2023-06-26T06:47:34;8.03;;;7.10;;
14603;SDS011;7388;51.078;13.740;2023-06-26T06:50:00;8.60;;;7.47;;
14603;SDS011;7388;51.078;13.740;2023-06-26T06:52:34;7.10;;;6.20;;
14603;SDS011;7388;51.078;13.740;2023-06-26T06:55:01;7.50;;;6.47;;
14603;SDS011;7388;51.078;13.740;2023-06-26T06:57:32;8.37;;;6.37;;
14603;SDS011;7388;51.078;13.740;2023-06-26T07:00:02;8.83;;;6.97;;
14603;SDS011;7388;51.078;13.740;2023-06-26T07:02:39;6.67;;;6.07;;
14603;SDS011;7388;51.078;13.740;2023-06-26T07:05:06;8.27;;;6.40;;
14603;SDS011;7388;51.078;13.740;2023-06-26T07:07:32;6.03;;;5.43;;
14603;SDS011;7388;51.078;13.740;2023-06-26T07:09:59;8.20;;;6.80;;
14603;SDS011;7388;51.078;13.740;2023-06-26T07:12:29;7.33;;;6.43;;
14603;SDS011;7388;51.078;13.740;2023-06-26T07:14:55;8.23;;;6.60;;
14603;SDS011;7388;51.078;13.740;2023-06-26T07:17:22;10.40;;;7.20;;
14603;SDS011;7388;51.078;13.740;2023-06-26T07:19:48;6.97;;;6.37;;
14603;SDS011;7388;51.078;13.740;2023-06-26T07:22:14;7.37;;;6.40;;
14603;SDS011;7388;51.078;13.740;2023-06-26T07:24:41;7.00;;;6.33;;
14603;SDS011;7388;51.078;13.740;2023-06-26T07:27:07;8.30;;;6.10;;
14603;SDS011;7388;51.078;13.740;2023-06-26T07:29:32;7.00;;;6.13;;
14603;SDS011;7388;51.078;13.740;2023-06-26T07:31:58;7.33;;;5.57;;
14603;SDS011;7388;51.078;13.740;2023-06-26T07:34:24;7.40;;;6.27;;
14603;SDS011;7388;51.078;13.740;2023-06-26T07:36:50;12.27;;;5.93;;
14603;SDS011;7388;51.078;13.740;2023-06-26T07:39:15;6.90;;;6.20;;
14603;SDS011;7388;51.078;13.740;2023-06-26T07:41:41;6.27;;;5.67;;
14603;SDS011;7388;51.078;13.740;2023-06-26T07:44:07;8.50;;;7.63;;
14603;SDS011;7388;51.078;13.740;2023-06-26T07:46:33;7.57;;;5.67;;
14603;SDS011;7388;51.078;13.740;2023-06-26T07:48:58;6.33;;;5.63;;
14603;SDS011;7388;51.078;13.740;2023-06-26T07:51:24;5.90;;;5.40;;
14603;SDS011;7388;51.078;13.740;2023-06-26T07:53:50;7.33;;;6.50;;
14603;SDS011;7388;51.078;13.740;2023-06-26T07:56:16;13.60;;;7.10;;
14603;SDS011;7388;51.078;13.740;2023-06-26T07:58:41;9.00;;;6.17;;
14603;SDS011;7388;51.078;13.740;2023-06-26T08:01:07;8.03;;;6.90;;
14603;SDS011;7388;51.078;13.740;2023-06-26T08:03:33;8.80;;;7.17;;
14603;SDS011;7388;51.078;13.740;2023-06-26T08:05:58;6.87;;;5.67;;
14603;SDS011;7388;51.078;13.740;2023-06-26T08:08:24;7.60;;;6.77;;
14603;SDS011;7388;51.078;13.740;2023-06-26T08:10:50;6.70;;;5.70;;
14603;SDS011;7388;51.078;13.740;2023-06-26T08:13:16;7.73;;;6.80;;
14603;SDS011;7388;51.078;13.740;2023-06-26T08:15:42;6.87;;;6.10;;
14603;SDS011;7388;51.078;13.740;2023-06-26T08:18:07;7.07;;;6.37;;
14603;SDS011;7388;51.078;13.740;2023-06-26T08:20:33;9.10;;;6.87;;
14603;SDS011;7388;51.078;13.740;2023-06-26T08:23:02;8.17;;;7.07;;
14603;SDS011;7388;51.078;13.740;2023-06-26T08:25:28;8.40;;;7.50;;
14603;SDS011;7388;51.078;13.740;2023-06-26T08:27:54;7.03;;;6.20;;
14603;SDS011;7388;51.078;13.740;2023-06-26T08:30:20;8.40;;;7.17;;
14603;SDS011;7388;51.078;13.740;2023-06-26T08:32:46;7.63;;;6.83;;
14603;SDS011;7388;51.078;13.740;2023-06-26T08:35:13;10.20;;;7.30;;
14603;SDS011;7388;51.078;13.740;2023-06-26T08:37:39;7.67;;;6.80;;
14603;SDS011;7388;51.078;13.740;2023-06-26T08:40:05;7.87;;;7.07;;
14603;SDS011;7388;51.078;13.740;2023-06-26T08:42:32;6.67;;;6.00;;
14603;SDS011;7388;51.078;13.740;2023-06-26T08:44:57;7.90;;;7.10;;
14603;SDS011;7388;51.078;13.740;2023-06-26T08:47:23;7.30;;;6.60;;
14603;SDS011;7388;51.078;13.740;2023-06-26T08:49:56;6.93;;;6.23;;
14603;SDS011;7388;51.078;13.740;2023-06-26T08:55:35;8.03;;;6.53;;
14603;SDS011;7388;51.078;13.740;2023-06-26T08:58:06;9.53;;;7.70;;
14603;SDS011;7388;51.078;13.740;2023-06-26T09:00:32;7.67;;;6.97;;
14603;SDS011;7388;51.078;13.740;2023-06-26T09:02:58;7.57;;;6.83;;
14603;SDS011;7388;51.078;13.740;2023-06-26T09:05:25;8.10;;;7.13;;
14603;SDS011;7388;51.078;13.740;2023-06-26T09:07:56;7.27;;;6.27;;
14603;SDS011;7388;51.078;13.740;2023-06-26T09:10:22;12.73;;;7.73;;
14603;SDS011;7388;51.078;13.740;2023-06-26T09:12:48;7.63;;;6.83;;
14603;SDS011;7388;51.078;13.740;2023-06-26T09:15:14;9.90;;;6.10;;
14603;SDS011;7388;51.078;13.740;2023-06-26T09:17:41;7.60;;;6.90;;
14603;SDS011;7388;51.078;13.740;2023-06-26T09:20:08;7.90;;;7.20;;
14603;SDS011;7388;51.078;13.740;2023-06-26T09:22:39;11.50;;;6.93;;
14603;SDS011;7388;51.078;13.740;2023-06-26T09:25:06;6.87;;;6.20;;
14603;SDS011;7388;51.078;13.740;2023-06-26T09:27:36;9.23;;;5.53;;
14603;SDS011;7388;51.078;13.740;2023-06-26T09:30:02;7.53;;;6.83;;
14603;SDS011;7388;51.078;13.740;2023-06-26T09:32:29;8.23;;;7.20;;
14603;SDS011;7388;51.078;13.740;2023-06-26T09:34:55;7.97;;;7.17;;
14603;SDS011;7388;51.078;13.740;2023-06-26T09:37:25;7.43;;;6.77;;
14603;SDS011;7388;51.078;13.740;2023-06-26T09:39:51;9.23;;;6.57;;
14603;SDS011;7388;51.078;13.740;2023-06-26T09:42:17;9.80;;;6.73;;
14603;SDS011;7388;51.078;13.740;2023-06-26T09:44:44;8.50;;;6.63;;
14603;SDS011;7388;51.078;13.740;2023-06-26T09:47:11;7.10;;;6.07;;
14603;SDS011;7388;51.078;13.740;2023-06-26T09:49:41;9.30;;;7.43;;
14603;SDS011;7388;51.078;13.740;2023-06-26T09:52:10;7.90;;;6.80;;
14603;SDS011;7388;51.078;13.740;2023-06-26T09:54:42;8.10;;;7.00;;
14603;SDS011;7388;51.078;13.740;2023-06-26T09:57:13;8.57;;;6.60;;
14603;SDS011;7388;51.078;13.740;2023-06-26T09:59:44;6.60;;;6.00;;
14603;SDS011;7388;51.078;13.740;2023-06-26T10:02:13;7.57;;;6.40;;
14603;SDS011;7388;51.078;13.740;2023-06-26T10:04:39;8.10;;;6.20;;
14603;SDS011;7388;51.078;13.740;2023-06-26T10:07:05;6.77;;;5.43;;
14603;SDS011;7388;51.078;13.740;2023-06-26T10:09:33;7.20;;;6.50;;
14603;SDS011;7388;51.078;13.740;2023-06-26T10:14:44;6.10;;;5.50;;
14603;SDS011;7388;51.078;13.740;2023-06-26T10:17:11;8.47;;;6.63;;
14603;SDS011;7388;51.078;13.740;2023-06-26T10:19:41;6.57;;;5.97;;
14603;SDS011;7388;51.078;13.740;2023-06-26T10:22:11;7.40;;;6.60;;
14603;SDS011;7388;51.078;13.740;2023-06-26T10:24:39;7.63;;;5.40;;
14603;SDS011;7388;51.078;13.740;2023-06-26T10:27:28;7.07;;;5.70;;
14603;SDS011;7388;51.078;13.740;2023-06-26T10:29:55;6.37;;;5.80;;
14603;SDS011;7388;51.078;13.740;2023-06-26T10:32:25;7.00;;;6.30;;
14603;SDS011;7388;51.078;13.740;2023-06-26T10:34:53;7.43;;;5.90;;
14603;SDS011;7388;51.078;13.740;2023-06-26T10:37:20;6.83;;;6.23;;
14603;SDS011;7388;51.078;13.740;2023-06-26T10:39:47;6.73;;;6.03;;
14603;SDS011;7388;51.078;13.740;2023-06-26T10:42:17;7.30;;;6.60;;
14603;SDS011;7388;51.078;13.740;2023-06-26T10:44:45;7.13;;;6.07;;
14603;SDS011;7388;51.078;13.740;2023-06-26T10:47:12;6.60;;;6.00;;
14603;SDS011;7388;51.078;13.740;2023-06-26T10:53:07;7.90;;;6.67;;
14603;SDS011;7388;51.078;13.740;2023-06-26T10:55:34;6.77;;;6.07;;
14603;SDS011;7388;51.078;13.740;2023-06-26T10:58:01;7.97;;;5.80;;
14603;SDS011;7388;51.078;13.740;2023-06-26T11:00:27;6.10;;;5.50;;
14603;SDS011;7388;51.078;13.740;2023-06-26T11:02:54;7.30;;;6.17;;
14603;SDS011;7388;51.078;13.740;2023-06-26T11:05:29;7.60;;;6.57;;
14603;SDS011;7388;51.078;13.740;2023-06-26T11:08:04;8.00;;;7.20;;
14603;SDS011;7388;51.078;13.740;2023-06-26T11:10:51;6.53;;;5.93;;
14603;SDS011;7388;51.078;13.740;2023-06-26T11:13:18;7.80;;;7.00;;
14603;SDS011;7388;51.078;13.740;2023-06-26T11:15:45;6.53;;;5.87;;
14603;SDS011;7388;51.078;13.740;2023-06-26T11:18:12;6.90;;;6.20;;
14603;SDS011;7388;51.078;13.740;2023-06-26T11:20:38;8.03;;;6.00;;
14603;SDS011;7388;51.078;13.740;2023-06-26T11:23:04;8.73;;;5.90;;
14603;SDS011;7388;51.078;13.740;2023-06-26T11:25:37;8.33;;;6.20;;
14603;SDS011;7388;51.078;13.740;2023-06-26T11:28:04;9.80;;;6.80;;
14603;SDS011;7388;51.078;13.740;2023-06-26T11:30:30;7.13;;;6.47;;
14603;SDS011;7388;51.078;13.740;2023-06-26T11:33:06;6.30;;;5.33;;
14603;SDS011;7388;51.078;13.740;2023-06-26T11:35:34;7.50;;;5.50;;
14603;SDS011;7388;51.078;13.740;2023-06-26T11:38:00;6.80;;;5.83;;
14603;SDS011;7388;51.078;13.740;2023-06-26T11:40:34;7.20;;;6.50;;
14603;SDS011;7388;51.078;13.740;2023-06-26T11:43:01;6.33;;;5.73;;
14603;SDS011;7388;51.078;13.740;2023-06-26T11:45:28;6.33;;;5.70;;
14603;SDS011;7388;51.078;13.740;2023-06-26T11:47:58;6.63;;;5.40;;
14603;SDS011;7388;51.078;13.740;2023-06-26T11:50:25;6.90;;;6.00;;
14603;SDS011;7388;51.078;13.740;2023-06-26T11:52:52;6.37;;;5.77;;
14603;SDS011;7388;51.078;13.740;2023-06-26T11:55:22;6.17;;;5.57;;
14603;SDS011;7388;51.078;13.740;2023-06-26T11:57:49;6.40;;;5.80;;
14603;SDS011;7388;51.078;13.740;2023-06-26T12:00:18;6.70;;;6.10;;
14603;SDS011;7388;51.078;13.740;2023-06-26T12:02:45;8.70;;;6.00;;
14603;SDS011;7388;51.078;13.740;2023-06-26T12:05:14;6.90;;;6.20;;
14603;SDS011;7388;51.078;13.740;2023-06-26T12:07:42;10.13;;;6.47;;
14603;SDS011;7388;51.078;13.740;2023-06-26T12:10:09;6.97;;;6.30;;
14603;SDS011;7388;51.078;13.740;2023-06-26T12:12:36;8.20;;;5.73;;
14603;SDS011;7388;51.078;13.740;2023-06-26T12:15:03;6.50;;;5.90;;
14603;SDS011;7388;51.078;13.740;2023-06-26T12:17:30;6.30;;;5.70;;
14603;SDS011;7388;51.078;13.740;2023-06-26T12:19:56;6.37;;;5.77;;
14603;SDS011;7388;51.078;13.740;2023-06-26T12:22:22;6.47;;;5.90;;
14603;SDS011;7388;51.078;13.740;2023-06-26T12:24:48;6.20;;;5.60;;
14603;SDS011;7388;51.078;13.740;2023-06-26T12:27:14;6.33;;;5.70;;
14603;SDS011;7388;51.078;13.740;2023-06-26T12:29:46;6.47;;;5.87;;
14603;SDS011;7388;51.078;13.740;2023-06-26T12:32:17;5.50;;;5.00;;
14603;SDS011;7388;51.078;13.740;2023-06-26T12:34:46;10.17;;;5.93;;
14603;SDS011;7388;51.078;13.740;2023-06-26T12:37:15;6.57;;;5.97;;
14603;SDS011;7388;51.078;13.740;2023-06-26T12:39:48;6.40;;;5.70;;
14603;SDS011;7388;51.078;13.740;2023-06-26T12:42:20;11.03;;;6.07;;
14603;SDS011;7388;51.078;13.740;2023-06-26T12:44:49;8.30;;;6.53;;
14603;SDS011;7388;51.078;13.740;2023-06-26T12:47:16;8.03;;;6.20;;
14603;SDS011;7388;51.078;13.740;2023-06-26T12:49:44;7.40;;;5.50;;
14603;SDS011;7388;51.078;13.740;2023-06-26T12:52:12;12.80;;;6.50;;
14603;SDS011;7388;51.078;13.740;2023-06-26T12:54:39;7.17;;;6.43;;
14603;SDS011;7388;51.078;13.740;2023-06-26T12:57:07;6.23;;;5.67;;
14603;SDS011;7388;51.078;13.740;2023-06-26T12:59:34;7.80;;;6.30;;
14603;SDS011;7388;51.078;13.740;2023-06-26T13:02:03;5.53;;;5.03;;
14603;SDS011;7388;51.078;13.740;2023-06-26T13:04:29;7.00;;;5.67;;
14603;SDS011;7388;51.078;13.740;2023-06-26T13:06:56;7.00;;;6.30;;
14603;SDS011;7388;51.078;13.740;2023-06-26T13:09:22;6.13;;;5.57;;
14603;SDS011;7388;51.078;13.740;2023-06-26T13:11:50;6.30;;;5.77;;
14603;SDS011;7388;51.078;13.740;2023-06-26T13:14:16;6.80;;;6.13;;
14603;SDS011;7388;51.078;13.740;2023-06-26T13:16:42;7.50;;;6.07;;
14603;SDS011;7388;51.078;13.740;2023-06-26T13:19:08;7.30;;;6.23;;
14603;SDS011;7388;51.078;13.740;2023-06-26T13:21:34;6.23;;;5.67;;
14603;SDS011;7388;51.078;13.740;2023-06-26T13:24:00;5.67;;;5.20;;
14603;SDS011;7388;51.078;13.740;2023-06-26T13:26:26;6.57;;;5.53;;
14603;SDS011;7388;51.078;13.740;2023-06-26T13:28:54;6.37;;;5.77;;
14603;SDS011;7388;51.078;13.740;2023-06-26T13:31:20;6.37;;;5.77;;
14603;SDS011;7388;51.078;13.740;2023-06-26T13:33:46;7.00;;;6.00;;
14603;SDS011;7388;51.078;13.740;2023-06-26T13:36:17;6.87;;;5.83;;
14603;SDS011;7388;51.078;13.740;2023-06-26T13:38:44;5.73;;;5.23;;
14603;SDS011;7388;51.078;13.740;2023-06-26T13:41:10;6.60;;;6.00;;
14603;SDS011;7388;51.078;13.740;2023-06-26T13:43:36;7.20;;;6.10;;
14603;SDS011;7388;51.078;13.740;2023-06-26T13:46:02;8.57;;;6.40;;
14603;SDS011;7388;51.078;13.740;2023-06-26T13:48:28;6.57;;;6.07;;
14603;SDS011;7388;51.078;13.740;2023-06-26T13:50:54;6.90;;;6.30;;
14603;SDS011;7388;51.078;13.740;2023-06-26T13:53:21;9.80;;;5.93;;
14603;SDS011;7388;51.078;13.740;2023-06-26T13:55:47;6.87;;;5.83;;
14603;SDS011;7388;51.078;13.740;2023-06-26T13:58:13;7.07;;;5.50;;
14603;SDS011;7388;51.078;13.740;2023-06-26T14:00:39;6.53;;;5.83;;
14603;SDS011;7388;51.078;13.740;2023-06-26T14:03:06;7.30;;;6.60;;
14603;SDS011;7388;51.078;13.740;2023-06-26T14:05:33;6.90;;;6.20;;
14603;SDS011;7388;51.078;13.740;2023-06-26T14:07:59;9.13;;;6.20;;
14603;SDS011;7388;51.078;13.740;2023-06-26T14:10:27;8.97;;;5.70;;
14603;SDS011;7388;51.078;13.740;2023-06-26T14:12:52;9.40;;;6.80;;
14603;SDS011;7388;51.078;13.740;2023-06-26T14:15:18;6.73;;;6.13;;
14603;SDS011;7388;51.078;13.740;2023-06-26T14:17:44;7.20;;;6.50;;
14603;SDS011;7388;51.078;13.740;2023-06-26T14:20:10;8.47;;;6.10;;
14603;SDS011;7388;51.078;13.740;2023-06-26T14:22:39;6.30;;;5.67;;
14603;SDS011;7388;51.078;13.740;2023-06-26T14:25:06;6.97;;;6.27;;
14603;SDS011;7388;51.078;13.740;2023-06-26T14:27:33;9.13;;;5.90;;
14603;SDS011;7388;51.078;13.740;2023-06-26T14:29:59;7.50;;;6.23;;
14603;SDS011;7388;51.078;13.740;2023-06-26T14:32:25;7.10;;;6.40;;
14603;SDS011;7388;51.078;13.740;2023-06-26T14:34:51;6.33;;;5.73;;
14603;SDS011;7388;51.078;13.740;2023-06-26T14:37:16;7.90;;;7.10;;
14603;SDS011;7388;51.078;13.740;2023-06-26T14:39:44;9.30;;;6.70;;
14603;SDS011;7388;51.078;13.740;2023-06-26T14:42:10;8.40;;;6.67;;
14603;SDS011;7388;51.078;13.740;2023-06-26T14:44:35;7.30;;;6.60;;
14603;SDS011;7388;51.078;13.740;2023-06-26T14:47:01;7.00;;;6.30;;
14603;SDS011;7388;51.078;13.740;2023-06-26T14:49:27;6.87;;;6.17;;
14603;SDS011;7388;51.078;13.740;2023-06-26T14:51:53;7.47;;;6.60;;
14603;SDS011;7388;51.078;13.740;2023-06-26T14:54:19;6.63;;;6.03;;
14603;SDS011;7388;51.078;13.740;2023-06-26T14:56:45;7.10;;;6.50;;
14603;SDS011;7388;51.078;13.740;2023-06-26T14:59:11;8.00;;;6.73;;